Pompeys Pillar, Montana
Current Conditions -  °F | °C
As of 9:53 AM on Friday 24 Oct 2014 (Local Time) from KBIL Reporting Station
Overcast Overcast  
Wind Chill: 56°   Ceiling: 9500
Heat Index: 56°   Visibility: 10mi
Dew Point: 37°   Wind: 3mph
Humidity: 49%   Direction: 350°N
Pressure: 30.05"   Gusts: NA
Location:  45.99°N, 107.96°W
Report Text: KBIL 241553Z 35003KT 10SM OVC095 13/03 A3005 RMK AO2 SLP162 T01330028
Loading
Personal Weather Stations






























Interactive Weather Map
Tropical Storm Tracking
New forecast layout! Learn more

10-Day Weather Forecast

Advertisements
Track Severe Weather on mobile